KFHU

Sierra Vista Municipal-Libby AAF Airport

Fort Huachuca Sierra Vista, Arizona, USA
METAR KFHU 220958Z 19011KT 10SM CLR 18/M07 A2995 RMK AO2A SLP067 T01751068
Observed Flight Rules
May-22 @ 09:58 UTC (18 minutes ago) Visual Flight Rules
Wind Visibility Clouds
190° at 11 knots 10 miles
  • Clear skies
Temperatures Readings
Current 18°C / 64°F
Dewpoint -7°C / 19°F
Humidity 18%
Altimeter 29.95" Hg
Pressure 1006.7 hPa
Elevation 1438
METAR KFHU 220958Z 19011KT 10SM CLR 18/M07 A2995 RMK AO2A SLP067 T01751068
Observed Flight Rules
May-22 @ 09:58 UTC
(18 minutes ago)
VFR
Wind Visibility
190° at 11 knots 10 miles
Clouds
  • Clear skies
Temperature Dewpoint
18°C / 64°F -7°C / 19°F
Humidity Altimeter Pressure
18% 29.95" Hg 1006.7 hPa